createdAt,value
2022-09-04T00:00:56.224Z,1016.59
2022-09-04T00:01:56.181Z,1016.54
2022-09-04T00:02:56.151Z,1016.52
2022-09-04T00:03:56.328Z,1016.53
2022-09-04T00:04:56.403Z,1016.55
2022-09-04T00:05:56.107Z,1016.53
2022-09-04T00:06:56.156Z,1016.53
2022-09-04T00:07:56.122Z,1016.57
2022-09-04T00:08:56.076Z,1016.51
2022-09-04T00:09:56.071Z,1016.51
2022-09-04T00:10:56.088Z,1016.50
2022-09-04T00:11:56.067Z,1016.56
2022-09-04T00:12:56.037Z,1016.63
2022-09-04T00:13:56.022Z,1016.57
2022-09-04T00:14:56.020Z,1016.53
2022-09-04T00:15:56.021Z,1016.60
2022-09-04T00:16:56.149Z,1016.58
2022-09-04T00:17:55.993Z,1016.56
2022-09-04T00:18:55.978Z,1016.58
2022-09-04T00:19:55.943Z,1016.55
2022-09-04T00:20:56.020Z,1016.52
2022-09-04T00:21:55.972Z,1016.54
2022-09-04T00:22:56.092Z,1016.65
2022-09-04T00:23:55.924Z,1016.64
2022-09-04T00:24:55.934Z,1016.61
2022-09-04T00:25:55.880Z,1016.60
2022-09-04T00:26:55.878Z,1016.61
2022-09-04T00:27:56.605Z,1016.56
2022-09-04T00:28:55.902Z,1016.61
2022-09-04T00:29:55.838Z,1016.57
2022-09-04T00:30:56.914Z,1016.62
2022-09-04T00:31:55.828Z,1016.60
2022-09-04T00:32:55.810Z,1016.65
2022-09-04T00:33:56.818Z,1016.62
2022-09-04T00:34:55.850Z,1016.65
2022-09-04T00:35:55.826Z,1016.68
2022-09-04T00:36:55.787Z,1016.67
2022-09-04T00:37:55.771Z,1016.63
2022-09-04T00:38:55.745Z,1016.70
2022-09-04T00:39:55.755Z,1016.73
2022-09-04T00:40:55.810Z,1016.72
2022-09-04T00:41:55.745Z,1016.75
2022-09-04T00:42:55.708Z,1016.72
2022-09-04T00:43:55.713Z,1016.81
2022-09-04T00:44:55.703Z,1016.74
2022-09-04T00:45:55.768Z,1016.82
2022-09-04T00:46:55.734Z,1016.82
2022-09-04T00:47:55.691Z,1016.83
2022-09-04T00:48:55.650Z,1016.84
2022-09-04T00:49:55.624Z,1016.87
2022-09-04T00:50:55.858Z,1016.86
2022-09-04T00:51:55.642Z,1016.87
2022-09-04T00:52:58.233Z,1016.91
2022-09-04T00:53:55.604Z,1016.89
2022-09-04T00:54:55.607Z,1016.89
2022-09-04T00:55:55.580Z,1016.90
2022-09-04T00:56:55.822Z,1016.94
2022-09-04T00:57:55.524Z,1016.92
2022-09-04T00:58:55.596Z,1016.93
2022-09-04T00:59:55.835Z,1016.90
2022-09-04T01:00:56.017Z,1016.92
2022-09-04T01:01:55.611Z,1016.93
2022-09-04T01:02:55.494Z,1016.95
2022-09-04T01:03:55.476Z,1016.95
2022-09-04T01:04:55.492Z,1016.96
2022-09-04T01:05:55.457Z,1016.97
2022-09-04T01:06:55.427Z,1016.92
2022-09-04T01:07:55.410Z,1016.99
2022-09-04T01:08:56.194Z,1016.93
2022-09-04T01:09:55.410Z,1016.92
2022-09-04T01:10:55.452Z,1016.98
2022-09-04T01:11:55.420Z,1016.92
2022-09-04T01:12:55.384Z,1016.98
2022-09-04T01:13:55.433Z,1016.96
2022-09-04T01:14:55.379Z,1017.00
2022-09-04T01:15:55.352Z,1017.01
2022-09-04T01:16:55.525Z,1017.01
2022-09-04T01:17:55.321Z,1017.04
2022-09-04T01:18:55.307Z,1017.07
2022-09-04T01:19:55.299Z,1017.09
2022-09-04T01:20:55.284Z,1017.05
2022-09-04T01:21:55.275Z,1017.08
2022-09-04T01:22:55.602Z,1017.07
2022-09-04T01:23:55.231Z,1017.08
2022-09-04T01:24:55.252Z,1017.11
2022-09-04T01:25:55.225Z,1017.10
2022-09-04T01:26:55.199Z,1017.13
2022-09-04T01:27:55.228Z,1017.12
2022-09-04T01:28:55.212Z,1017.13
2022-09-04T01:29:55.175Z,1017.13
2022-09-04T01:30:55.158Z,1017.10
2022-09-04T01:31:55.368Z,1017.11
2022-09-04T01:32:55.136Z,1017.15
2022-09-04T01:33:55.188Z,1017.12
2022-09-04T01:34:55.141Z,1017.07
2022-09-04T01:35:55.102Z,1017.04
2022-09-04T01:36:55.102Z,1017.10
2022-09-04T01:37:55.080Z,1017.06
2022-09-04T01:38:55.062Z,1017.05
2022-09-04T01:39:55.135Z,1017.02
2022-09-04T01:40:55.086Z,1017.04
2022-09-04T01:41:55.038Z,1017.08
2022-09-04T01:42:55.020Z,1017.07
2022-09-04T01:43:55.037Z,1017.10
2022-09-04T01:44:55.260Z,1017.06
2022-09-04T01:45:55.054Z,1017.06
2022-09-04T01:46:55.051Z,1017.06
2022-09-04T01:47:54.985Z,1017.04
2022-09-04T01:48:54.958Z,1017.08
2022-09-04T01:49:54.970Z,1017.09
2022-09-04T01:50:55.612Z,1017.06
2022-09-04T01:51:54.928Z,1017.09
2022-09-04T01:52:54.984Z,1017.12
2022-09-04T01:53:54.902Z,1017.11
2022-09-04T01:54:54.883Z,1017.15
2022-09-04T01:55:54.875Z,1017.19
2022-09-04T01:56:54.879Z,1017.20
2022-09-04T01:57:54.883Z,1017.17
2022-09-04T01:58:55.012Z,1017.21
2022-09-04T01:59:54.846Z,1017.16
2022-09-04T02:00:56.129Z,1017.13
2022-09-04T02:01:54.893Z,1017.24
2022-09-04T02:02:54.802Z,1017.20
2022-09-04T02:03:54.837Z,1017.23
2022-09-04T02:04:54.838Z,1017.22
2022-09-04T02:05:54.782Z,1017.27
2022-09-04T02:06:54.772Z,1017.28
2022-09-04T02:07:54.756Z,1017.20
2022-09-04T02:08:54.764Z,1017.21
2022-09-04T02:09:54.748Z,1017.24
2022-09-04T02:10:54.755Z,1017.26
2022-09-04T02:11:57.167Z,1017.26
2022-09-04T02:12:54.746Z,1017.21
2022-09-04T02:13:54.673Z,1017.23
2022-09-04T02:14:54.688Z,1017.17
2022-09-04T02:15:54.742Z,1017.16
2022-09-04T02:16:54.778Z,1017.22
2022-09-04T02:17:54.633Z,1017.18
2022-09-04T02:18:54.637Z,1017.15
2022-09-04T02:19:54.616Z,1017.20
2022-09-04T02:20:54.591Z,1017.24
2022-09-04T02:21:54.636Z,1017.21
2022-09-04T02:22:54.649Z,1017.26
2022-09-04T02:23:54.598Z,1017.24
2022-09-04T02:24:54.567Z,1017.25
2022-09-04T02:25:54.541Z,1017.29
2022-09-04T02:26:54.526Z,1017.25
2022-09-04T02:27:54.785Z,1017.30
2022-09-04T02:28:54.608Z,1017.27
2022-09-04T02:29:55.520Z,1017.28
2022-09-04T02:30:54.733Z,1017.29
2022-09-04T02:31:54.643Z,1017.32
2022-09-04T02:32:54.501Z,1017.38
2022-09-04T02:33:54.454Z,1017.34
2022-09-04T02:34:54.507Z,1017.32
2022-09-04T02:35:54.455Z,1017.31
2022-09-04T02:36:54.445Z,1017.30
2022-09-04T02:37:54.434Z,1017.31
2022-09-04T02:38:54.393Z,1017.29
2022-09-04T02:39:54.480Z,1017.28
2022-09-04T02:40:54.437Z,1017.28
2022-09-04T02:41:54.371Z,1017.26
2022-09-04T02:42:54.353Z,1017.25
2022-09-04T02:43:54.339Z,1017.25
2022-09-04T02:44:54.570Z,1017.29
2022-09-04T02:45:54.344Z,1017.19
2022-09-04T02:46:54.448Z,1017.24
2022-09-04T02:47:54.305Z,1017.22
2022-09-04T02:48:54.296Z,1017.20
2022-09-04T02:49:54.277Z,1017.23
2022-09-04T02:50:54.262Z,1017.19
2022-09-04T02:51:54.329Z,1017.20
2022-09-04T02:52:54.320Z,1017.17
2022-09-04T02:53:54.246Z,1017.22
2022-09-04T02:54:54.216Z,1017.21
2022-09-04T02:55:54.228Z,1017.20
2022-09-04T02:56:54.202Z,1017.29
2022-09-04T02:57:54.198Z,1017.22
2022-09-04T02:58:54.206Z,1017.21
2022-09-04T02:59:54.193Z,1017.24
2022-09-04T03:00:54.199Z,1017.19
2022-09-04T03:01:54.196Z,1017.23
2022-09-04T03:02:54.127Z,1017.26
2022-09-04T03:03:54.152Z,1017.22
2022-09-04T03:04:54.660Z,1017.23
2022-09-04T03:05:54.097Z,1017.19
2022-09-04T03:06:54.096Z,1017.24
2022-09-04T03:07:54.151Z,1017.25
2022-09-04T03:08:54.087Z,1017.20
2022-09-04T03:09:54.334Z,1017.25
2022-09-04T03:10:54.131Z,1017.20
2022-09-04T03:11:54.327Z,1017.25
2022-09-04T03:12:54.114Z,1017.23
2022-09-04T03:13:53.994Z,1017.27
2022-09-04T03:14:54.141Z,1017.22
2022-09-04T03:15:54.069Z,1017.20
2022-09-04T03:16:54.056Z,1017.21
2022-09-04T03:17:54.071Z,1017.29
2022-09-04T03:18:53.949Z,1017.33
2022-09-04T03:19:53.935Z,1017.31
2022-09-04T03:20:53.935Z,1017.33
2022-09-04T03:21:54.298Z,1017.37
2022-09-04T03:22:54.049Z,1017.33
2022-09-04T03:23:53.936Z,1017.39
2022-09-04T03:24:53.895Z,1017.35
2022-09-04T03:25:53.963Z,1017.40
2022-09-04T03:26:53.881Z,1017.38
2022-09-04T03:27:53.835Z,1017.39
2022-09-04T03:28:54.281Z,1017.41
2022-09-04T03:29:53.817Z,1017.43
2022-09-04T03:30:53.798Z,1017.44
2022-09-04T03:31:53.831Z,1017.47
2022-09-04T03:32:53.784Z,1017.48
2022-09-04T03:33:53.777Z,1017.49
2022-09-04T03:34:53.802Z,1017.49
2022-09-04T03:35:53.739Z,1017.48
2022-09-04T03:36:53.727Z,1017.46
2022-09-04T03:37:53.716Z,1017.48
2022-09-04T03:38:53.715Z,1017.45
2022-09-04T03:39:53.808Z,1017.50
2022-09-04T03:40:53.760Z,1017.50
2022-09-04T03:41:53.670Z,1017.50
2022-09-04T03:42:53.683Z,1017.53
2022-09-04T03:43:53.655Z,1017.50
2022-09-04T03:44:53.643Z,1017.56
2022-09-04T03:45:53.630Z,1017.52
2022-09-04T03:46:53.730Z,1017.54
2022-09-04T03:47:53.623Z,1017.59
2022-09-04T03:48:53.607Z,1017.58
2022-09-04T03:49:53.593Z,1017.54
2022-09-04T03:50:53.576Z,1017.63
2022-09-04T03:51:53.571Z,1017.62
2022-09-04T03:52:53.616Z,1017.67
2022-09-04T03:53:53.565Z,1017.64
2022-09-04T03:54:53.659Z,1017.65
2022-09-04T03:55:53.655Z,1017.70
2022-09-04T03:56:53.542Z,1017.67
2022-09-04T03:57:53.534Z,1017.66
2022-09-04T03:58:53.522Z,1017.63
2022-09-04T03:59:53.477Z,1017.62
2022-09-04T04:00:53.578Z,1017.55
2022-09-04T04:01:53.704Z,1017.60
2022-09-04T04:02:53.453Z,1017.50
2022-09-04T04:03:53.424Z,1017.53
2022-09-04T04:04:53.472Z,1017.61
2022-09-04T04:05:53.403Z,1017.57
2022-09-04T04:06:53.464Z,1017.58
2022-09-04T04:07:53.498Z,1017.62
2022-09-04T04:08:53.363Z,1017.55
2022-09-04T04:09:53.376Z,1017.52
2022-09-04T04:10:53.390Z,1017.56
2022-09-04T04:11:53.339Z,1017.61
2022-09-04T04:12:53.320Z,1017.58
2022-09-04T04:13:53.357Z,1017.56
2022-09-04T04:14:53.304Z,1017.69
2022-09-04T04:15:53.354Z,1017.59
2022-09-04T04:16:56.066Z,1017.66
2022-09-04T04:17:53.522Z,1017.68
2022-09-04T04:18:53.276Z,1017.69
2022-09-04T04:19:53.259Z,1017.71
2022-09-04T04:20:53.234Z,1017.73
2022-09-04T04:21:53.221Z,1017.76
2022-09-04T04:22:53.252Z,1017.78
2022-09-04T04:23:53.210Z,1017.78
2022-09-04T04:24:53.186Z,1017.79
2022-09-04T04:25:53.247Z,1017.82
2022-09-04T04:26:54.897Z,1017.81
2022-09-04T04:27:53.159Z,1017.83
2022-09-04T04:28:53.201Z,1017.82
2022-09-04T04:29:53.135Z,1017.81
2022-09-04T04:30:53.169Z,1017.80
2022-09-04T04:31:53.113Z,1017.90
2022-09-04T04:32:53.090Z,1017.87
2022-09-04T04:33:53.111Z,1017.84
2022-09-04T04:34:53.218Z,1017.85
2022-09-04T04:35:53.080Z,1017.88
2022-09-04T04:36:53.061Z,1017.89
2022-09-04T04:37:53.082Z,1017.86
2022-09-04T04:38:53.031Z,1017.86
2022-09-04T04:39:53.063Z,1017.83
2022-09-04T04:40:53.065Z,1017.88
2022-09-04T04:41:53.008Z,1017.85
2022-09-04T04:42:52.977Z,1017.83
2022-09-04T04:43:53.060Z,1017.83
2022-09-04T04:44:53.020Z,1017.88
2022-09-04T04:45:53.118Z,1017.86
2022-09-04T04:46:53.120Z,1017.89
2022-09-04T04:47:52.996Z,1017.86
2022-09-04T04:48:53.143Z,1017.91
2022-09-04T04:49:53.273Z,1017.93
2022-09-04T04:50:53.145Z,1017.93
2022-09-04T04:51:52.902Z,1017.90
2022-09-04T04:52:53.664Z,1017.90
2022-09-04T04:53:53.413Z,1017.91
2022-09-04T04:54:52.859Z,1017.95
2022-09-04T04:55:52.840Z,1017.93
2022-09-04T04:56:52.825Z,1017.95
2022-09-04T04:57:52.816Z,1017.97
2022-09-04T04:58:52.845Z,1017.98
2022-09-04T04:59:52.800Z,1018.01
2022-09-04T05:00:53.806Z,1017.96
2022-09-04T05:01:52.845Z,1017.98
2022-09-04T05:02:52.798Z,1018.00
2022-09-04T05:03:52.749Z,1018.01
2022-09-04T05:04:52.796Z,1018.03
2022-09-04T05:05:52.730Z,1018.06
2022-09-04T05:06:52.724Z,1018.06
2022-09-04T05:07:52.717Z,1018.09
2022-09-04T05:08:52.783Z,1018.13
2022-09-04T05:09:52.681Z,1018.11
2022-09-04T05:10:52.711Z,1018.18
2022-09-04T05:11:52.666Z,1018.19
2022-09-04T05:12:52.657Z,1018.18
2022-09-04T05:13:52.898Z,1018.17
2022-09-04T05:14:52.643Z,1018.22
2022-09-04T05:16:08.410Z,1018.21
2022-09-04T05:16:55.775Z,1018.22
2022-09-04T05:17:52.579Z,1018.22
2022-09-04T05:18:52.596Z,1018.22
2022-09-04T05:19:52.608Z,1018.24
2022-09-04T05:20:52.560Z,1018.27
2022-09-04T05:21:52.543Z,1018.27
2022-09-04T05:22:52.592Z,1018.29
2022-09-04T05:23:52.515Z,1018.38
2022-09-04T05:24:55.688Z,1018.33
2022-09-04T05:25:52.501Z,1018.36
2022-09-04T05:26:52.498Z,1018.38
2022-09-04T05:27:52.470Z,1018.44
2022-09-04T05:28:58.871Z,1018.40
2022-09-04T05:29:58.566Z,1018.49
2022-09-04T05:30:59.308Z,1018.49
2022-09-04T05:31:52.432Z,1018.47
2022-09-04T05:32:52.439Z,1018.52
2022-09-04T05:33:52.418Z,1018.52
2022-09-04T05:34:52.433Z,1018.52
2022-09-04T05:35:52.985Z,1018.58
2022-09-04T05:36:52.385Z,1018.58
2022-09-04T05:37:52.368Z,1018.61
2022-09-04T05:38:52.357Z,1018.60
2022-09-04T05:39:52.393Z,1018.60
2022-09-04T05:40:52.411Z,1018.56
2022-09-04T05:41:52.324Z,1018.62
2022-09-04T05:42:52.304Z,1018.61
2022-09-04T05:43:52.297Z,1018.50
2022-09-04T05:44:52.280Z,1018.58
2022-09-04T05:45:52.265Z,1018.57
2022-09-04T05:46:52.410Z,1018.57
2022-09-04T05:47:52.249Z,1018.61
2022-09-04T05:48:52.238Z,1018.58
2022-09-04T05:49:52.222Z,1018.58
2022-09-04T05:50:52.227Z,1018.63
2022-09-04T05:51:52.201Z,1018.62
2022-09-04T05:52:52.292Z,1018.64
2022-09-04T05:53:52.189Z,1018.62
2022-09-04T05:54:52.165Z,1018.64
2022-09-04T05:55:52.151Z,1018.63
2022-09-04T05:56:52.147Z,1018.68
2022-09-04T05:57:52.134Z,1018.74
2022-09-04T05:58:52.641Z,1018.68
2022-09-04T05:59:52.111Z,1018.71
2022-09-04T06:00:52.127Z,1018.70
2022-09-04T06:01:52.474Z,1018.73
2022-09-04T06:02:52.119Z,1018.73
2022-09-04T06:03:52.099Z,1018.78
2022-09-04T06:04:52.059Z,1018.72
2022-09-04T06:05:52.068Z,1018.76
2022-09-04T06:06:52.040Z,1018.76
2022-09-04T06:07:52.016Z,1018.79
2022-09-04T06:08:52.019Z,1018.81
2022-09-04T06:09:52.091Z,1018.81
2022-09-04T06:10:51.990Z,1018.82
2022-09-04T06:11:51.979Z,1018.82
2022-09-04T06:12:51.973Z,1018.79
2022-09-04T06:13:51.950Z,1018.77
2022-09-04T06:14:51.942Z,1018.82
2022-09-04T06:15:52.018Z,1018.86
2022-09-04T06:16:51.919Z,1018.82
2022-09-04T06:17:51.908Z,1018.81
2022-09-04T06:18:51.895Z,1018.84
2022-09-04T06:19:51.892Z,1018.85
2022-09-04T06:20:51.881Z,1018.89
2022-09-04T06:21:51.907Z,1018.87
2022-09-04T06:22:55.741Z,1018.88
2022-09-04T06:23:51.847Z,1018.87
2022-09-04T06:24:51.870Z,1018.82
2022-09-04T06:25:51.879Z,1018.82
2022-09-04T06:26:51.818Z,1018.81
2022-09-04T06:27:51.843Z,1018.82
2022-09-04T06:28:51.791Z,1018.84
2022-09-04T06:29:51.773Z,1018.87
2022-09-04T06:30:51.798Z,1018.90
2022-09-04T06:31:51.763Z,1018.89
2022-09-04T06:32:51.746Z,1018.92
2022-09-04T06:33:51.784Z,1018.92
2022-09-04T06:34:51.722Z,1018.90
2022-09-04T06:35:51.713Z,1018.97
2022-09-04T06:36:51.703Z,1018.89
2022-09-04T06:37:51.684Z,1018.93
2022-09-04T06:38:51.672Z,1018.91
2022-09-04T06:39:51.904Z,1018.91
2022-09-04T06:40:51.657Z,1018.90
2022-09-04T06:41:51.637Z,1018.90
2022-09-04T06:42:51.632Z,1018.90
2022-09-04T06:43:54.359Z,1018.93
2022-09-04T06:44:51.610Z,1018.93
2022-09-04T06:45:51.663Z,1018.97
2022-09-04T06:46:51.656Z,1018.95
2022-09-04T06:47:51.584Z,1018.92
2022-09-04T06:48:51.562Z,1018.95
2022-09-04T06:49:51.562Z,1018.96
2022-09-04T06:50:51.539Z,1019.00
2022-09-04T06:51:51.571Z,1018.99
2022-09-04T06:52:51.522Z,1019.01
2022-09-04T06:53:51.509Z,1019.04
2022-09-04T06:54:51.497Z,1019.07
2022-09-04T06:55:51.481Z,1019.06
2022-09-04T06:56:51.851Z,1019.08
2022-09-04T06:57:51.490Z,1019.12
2022-09-04T06:58:51.707Z,1019.12
2022-09-04T06:59:51.437Z,1019.09
2022-09-04T07:00:51.426Z,1019.13
2022-09-04T07:01:51.549Z,1019.12
2022-09-04T07:02:51.471Z,1019.15
2022-09-04T07:03:51.429Z,1019.11
2022-09-04T07:04:51.379Z,1019.13
2022-09-04T07:05:51.586Z,1019.18
2022-09-04T07:06:51.352Z,1019.19
2022-09-04T07:07:51.352Z,1019.12
2022-09-04T07:08:51.337Z,1019.22
2022-09-04T07:09:51.355Z,1019.19
2022-09-04T07:10:51.315Z,1019.15
2022-09-04T07:11:51.301Z,1019.14
2022-09-04T07:12:51.291Z,1019.13
2022-09-04T07:13:51.286Z,1019.09
2022-09-04T07:14:51.276Z,1019.09
2022-09-04T07:15:51.350Z,1019.14
2022-09-04T07:16:51.260Z,1019.12
2022-09-04T07:17:51.818Z,1019.15
2022-09-04T07:18:51.224Z,1019.15
2022-09-04T07:19:51.210Z,1019.16
2022-09-04T07:20:51.205Z,1019.16
2022-09-04T07:21:51.231Z,1019.22
2022-09-04T07:22:51.182Z,1019.16
2022-09-04T07:23:51.179Z,1019.17
2022-09-04T07:24:51.172Z,1019.22
2022-09-04T07:25:51.147Z,1019.22
2022-09-04T07:26:51.146Z,1019.24
2022-09-04T07:27:51.218Z,1019.24
2022-09-04T07:28:51.172Z,1019.26
2022-09-04T07:29:51.092Z,1019.24
2022-09-04T07:30:51.085Z,1019.28
2022-09-04T07:31:51.116Z,1019.31
2022-09-04T07:32:51.204Z,1019.30
2022-09-04T07:33:51.208Z,1019.28
2022-09-04T07:34:51.374Z,1019.27
2022-09-04T07:35:51.060Z,1019.28
2022-09-04T07:36:51.068Z,1019.26
2022-09-04T07:39:51.001Z,1019.31
2022-09-04T07:40:51.818Z,1019.27
2022-09-04T07:41:51.799Z,1019.28
2022-09-04T07:42:51.794Z,1019.27
2022-09-04T07:43:54.864Z,1019.27
2022-09-04T07:44:55.449Z,1019.29
2022-09-04T07:45:51.813Z,1019.32
2022-09-04T07:46:51.758Z,1019.32
2022-09-04T07:47:51.745Z,1019.33
2022-09-04T07:48:51.742Z,1019.36
2022-09-04T07:49:51.720Z,1019.37
2022-09-04T07:50:51.794Z,1019.37
2022-09-04T07:51:51.774Z,1019.40
2022-09-04T07:52:51.757Z,1019.41
2022-09-04T07:53:51.667Z,1019.40
2022-09-04T07:54:51.797Z,1019.39
2022-09-04T07:55:51.675Z,1019.43
2022-09-04T07:56:51.740Z,1019.40
2022-09-04T07:57:51.827Z,1019.36
2022-09-04T07:58:51.623Z,1019.33
2022-09-04T07:59:51.827Z,1019.37
2022-09-04T08:00:51.602Z,1019.40
2022-09-04T08:01:51.784Z,1019.39
2022-09-04T08:02:51.871Z,1019.43
2022-09-04T08:03:54.515Z,1019.45
2022-09-04T08:04:51.668Z,1019.43
2022-09-04T08:05:51.583Z,1019.45
2022-09-04T08:06:51.554Z,1019.41
2022-09-04T08:07:51.664Z,1019.50
2022-09-04T08:08:51.542Z,1019.48
2022-09-04T08:09:51.492Z,1019.46
2022-09-04T08:10:51.548Z,1019.53
2022-09-04T08:11:51.624Z,1019.56
2022-09-04T08:12:52.138Z,1019.53
2022-09-04T08:13:51.550Z,1019.58
2022-09-04T08:14:51.512Z,1019.53
2022-09-04T08:15:51.544Z,1019.57
2022-09-04T08:16:53.402Z,1019.58
2022-09-04T08:17:51.440Z,1019.52
2022-09-04T08:18:51.402Z,1019.55
2022-09-04T08:19:51.432Z,1019.57
2022-09-04T08:20:51.462Z,1019.56
2022-09-04T08:21:51.437Z,1019.58
2022-09-04T08:22:51.420Z,1019.61
2022-09-04T08:23:51.349Z,1019.58
2022-09-04T08:24:51.344Z,1019.59
2022-09-04T08:25:51.316Z,1019.59
2022-09-04T08:26:51.366Z,1019.63
2022-09-04T08:27:51.311Z,1019.53
2022-09-04T08:28:51.293Z,1019.60
2022-09-04T08:29:58.609Z,1019.53
2022-09-04T08:30:51.399Z,1019.61
2022-09-04T08:31:51.251Z,1019.61
2022-09-04T08:32:51.286Z,1019.66
2022-09-04T08:33:51.242Z,1019.64
2022-09-04T08:34:51.228Z,1019.66
2022-09-04T08:35:51.194Z,1019.74
2022-09-04T08:36:51.197Z,1019.75
2022-09-04T08:37:51.178Z,1019.76
2022-09-04T08:38:51.235Z,1019.75
2022-09-04T08:39:51.313Z,1019.71
2022-09-04T08:40:52.302Z,1019.68
2022-09-04T08:41:51.149Z,1019.73
2022-09-04T08:44:18.703Z,1019.70
2022-09-04T08:45:19.620Z,1019.79
2022-09-04T08:46:19.695Z,1019.78
2022-09-04T08:47:19.600Z,1019.75
2022-09-04T08:48:19.647Z,1019.76
2022-09-04T08:49:19.636Z,1019.76
2022-09-04T08:50:20.335Z,1019.76
2022-09-04T08:51:19.557Z,1019.75
2022-09-04T08:52:19.548Z,1019.77
2022-09-04T08:53:19.556Z,1019.70
2022-09-04T08:54:25.593Z,1019.73
2022-09-04T08:55:19.519Z,1019.81
2022-09-04T08:56:19.742Z,1019.80
2022-09-04T08:57:19.498Z,1019.86
2022-09-04T08:58:19.479Z,1019.86
2022-09-04T08:59:19.465Z,1019.89
2022-09-04T09:00:19.548Z,1019.90
2022-09-04T09:01:19.493Z,1019.91
2022-09-04T09:02:19.471Z,1019.88
2022-09-04T09:03:19.429Z,1019.91
2022-09-04T09:04:19.459Z,1019.96
2022-09-04T09:05:19.427Z,1019.95
2022-09-04T09:06:19.666Z,1019.97
2022-09-04T09:07:19.502Z,1019.95
2022-09-04T09:08:19.355Z,1019.98
2022-09-04T09:09:19.356Z,1019.98
2022-09-04T09:10:19.345Z,1019.87
2022-09-04T09:11:20.369Z,1019.98
2022-09-04T09:12:19.346Z,1019.97
2022-09-04T09:13:19.307Z,1020.00
2022-09-04T09:14:19.296Z,1019.98
2022-09-04T09:15:19.277Z,1019.99
2022-09-04T09:16:19.300Z,1019.98
2022-09-04T09:17:21.497Z,1019.99
2022-09-04T09:18:19.348Z,1020.03
2022-09-04T09:19:19.243Z,1020.06
2022-09-04T09:20:20.056Z,1020.06
2022-09-04T09:21:19.214Z,1020.02
2022-09-04T09:22:19.211Z,1020.03
2022-09-04T09:23:19.260Z,1019.97
2022-09-04T09:24:19.214Z,1019.97
2022-09-04T09:25:19.169Z,1019.97
2022-09-04T09:26:19.201Z,1019.95
2022-09-04T09:27:19.142Z,1019.96
2022-09-04T09:28:19.130Z,1019.96
2022-09-04T09:29:19.127Z,1019.94
2022-09-04T09:30:19.154Z,1019.96
2022-09-04T09:31:19.153Z,1020.00
2022-09-04T09:32:19.093Z,1020.02
2022-09-04T09:33:19.143Z,1020.00
2022-09-04T09:34:19.068Z,1019.95
2022-09-04T09:35:19.063Z,1019.99
2022-09-04T09:36:19.090Z,1019.93
2022-09-04T09:37:19.038Z,1019.90
2022-09-04T09:38:19.020Z,1019.96
2022-09-04T09:39:19.123Z,1019.96
2022-09-04T09:40:18.996Z,1019.92
2022-09-04T09:41:19.895Z,1019.94
2022-09-04T09:42:19.166Z,1019.91
2022-09-04T09:43:19.074Z,1019.93
2022-09-04T09:44:19.340Z,1019.95
2022-09-04T09:45:19.054Z,1019.89
2022-09-04T09:46:19.275Z,1019.91
2022-09-04T09:47:19.159Z,1019.92
2022-09-04T09:48:19.165Z,1019.87
2022-09-04T09:49:19.122Z,1019.89
2022-09-04T09:50:19.221Z,1019.96
2022-09-04T09:51:19.001Z,1019.89
2022-09-04T09:52:18.924Z,1019.95
2022-09-04T09:53:19.130Z,1019.93
2022-09-04T09:54:18.886Z,1019.98
2022-09-04T09:55:18.830Z,1019.91
2022-09-04T09:56:18.958Z,1019.95
2022-09-04T09:57:18.945Z,1019.91
2022-09-04T09:58:19.025Z,1019.91
2022-09-04T09:59:18.855Z,1019.89
2022-09-04T10:00:19.200Z,1019.92
2022-09-04T10:01:18.887Z,1019.83
2022-09-04T10:02:18.809Z,1019.90
2022-09-04T10:03:19.160Z,1019.97
2022-09-04T10:04:18.899Z,1019.94
2022-09-04T10:05:18.799Z,1019.93
2022-09-04T10:06:18.898Z,1019.97
2022-09-04T10:07:18.954Z,1019.91
2022-09-04T10:08:21.774Z,1019.93
2022-09-04T10:09:19.217Z,1019.91
2022-09-04T10:10:18.846Z,1019.89
2022-09-04T10:11:18.659Z,1019.95
2022-09-04T10:12:19.400Z,1019.94
2022-09-04T10:13:19.058Z,1019.92
2022-09-04T10:14:23.183Z,1019.93
2022-09-04T10:15:18.678Z,1019.95
2022-09-04T10:16:18.973Z,1019.90
2022-09-04T10:17:18.711Z,1019.90
2022-09-04T10:18:18.636Z,1019.87
2022-09-04T10:19:18.771Z,1019.90
2022-09-04T10:20:18.689Z,1019.85
2022-09-04T10:21:18.677Z,1019.85
2022-09-04T10:22:18.570Z,1019.82
2022-09-04T10:23:18.536Z,1019.86
2022-09-04T10:24:19.078Z,1019.80
2022-09-04T10:25:18.632Z,1019.80
2022-09-04T10:26:18.711Z,1019.84
2022-09-04T10:27:18.553Z,1019.81
2022-09-04T10:28:18.680Z,1019.72
2022-09-04T10:29:22.158Z,1019.77
2022-09-04T10:30:18.474Z,1019.78
2022-09-04T10:31:18.442Z,1019.72
2022-09-04T10:32:18.428Z,1019.80
2022-09-04T10:33:18.460Z,1019.78
2022-09-04T10:34:18.478Z,1019.75
2022-09-04T10:35:18.506Z,1019.83
2022-09-04T10:36:18.453Z,1019.79
2022-09-04T10:37:20.340Z,1019.82
2022-09-04T10:38:18.369Z,1019.78
2022-09-04T10:39:18.487Z,1019.81
2022-09-04T10:40:18.324Z,1019.88
2022-09-04T10:41:18.321Z,1019.80
2022-09-04T10:42:18.421Z,1019.80
2022-09-04T10:43:18.458Z,1019.82
2022-09-04T10:44:18.309Z,1019.81
2022-09-04T10:45:18.377Z,1019.73
2022-09-04T10:46:23.109Z,1019.84
2022-09-04T10:47:18.257Z,1019.80
2022-09-04T10:48:18.434Z,1019.84
2022-09-04T10:49:18.462Z,1019.84
2022-09-04T10:50:18.536Z,1019.83
2022-09-04T10:51:18.421Z,1019.86
2022-09-04T10:52:18.212Z,1019.80
2022-09-04T10:53:18.309Z,1019.89
2022-09-04T10:54:18.283Z,1019.88
2022-09-04T10:55:19.789Z,1019.89
2022-09-04T10:56:18.235Z,1019.84
2022-09-04T10:57:18.225Z,1019.96
2022-09-04T10:58:18.295Z,1019.91
2022-09-04T10:59:18.250Z,1019.85
2022-09-04T11:00:18.314Z,1019.79
2022-09-04T11:01:18.206Z,1019.80
2022-09-04T11:02:18.205Z,1019.80
2022-09-04T11:03:18.096Z,1019.82
2022-09-04T11:04:18.109Z,1019.84
2022-09-04T11:05:18.060Z,1019.83
2022-09-04T11:06:18.339Z,1019.84
2022-09-04T11:07:18.207Z,1019.83
2022-09-04T11:08:18.100Z,1019.89
2022-09-04T11:09:18.060Z,1019.90
2022-09-04T11:10:18.110Z,1019.89
2022-09-04T11:11:18.116Z,1019.83
2022-09-04T11:12:18.127Z,1019.81
2022-09-04T11:13:18.141Z,1019.80
2022-09-04T11:14:18.003Z,1019.80
2022-09-04T11:15:18.080Z,1019.78
2022-09-04T11:16:19.180Z,1019.82
2022-09-04T11:17:18.035Z,1019.79
2022-09-04T11:18:18.202Z,1019.80
2022-09-04T11:19:17.955Z,1019.81
2022-09-04T11:20:18.582Z,1019.76
2022-09-04T11:21:18.001Z,1019.79
2022-09-04T11:22:17.859Z,1019.85
2022-09-04T11:23:17.854Z,1019.80
2022-09-04T11:24:17.882Z,1019.82
2022-09-04T11:25:17.960Z,1019.82
2022-09-04T11:26:18.064Z,1019.80
2022-09-04T11:27:18.002Z,1019.82
2022-09-04T11:28:18.783Z,1019.77
2022-09-04T11:29:17.856Z,1019.81
2022-09-04T11:30:17.868Z,1019.82
2022-09-04T11:31:17.853Z,1019.78
2022-09-04T11:32:18.021Z,1019.85
2022-09-04T11:33:17.882Z,1019.84
2022-09-04T11:34:17.828Z,1019.84
2022-09-04T11:35:17.909Z,1019.82
2022-09-04T11:36:17.998Z,1019.81
2022-09-04T11:37:17.889Z,1019.83
2022-09-04T11:38:17.776Z,1019.80
2022-09-04T11:39:17.834Z,1019.81
2022-09-04T11:40:17.799Z,1019.81
2022-09-04T11:41:18.332Z,1019.83
2022-09-04T11:44:41.693Z,1019.79
2022-09-04T11:45:42.719Z,1019.81
2022-09-04T11:46:42.658Z,1019.84
2022-09-04T11:47:42.682Z,1019.78
2022-09-04T11:48:42.673Z,1019.83
2022-09-04T11:49:42.684Z,1019.83
2022-09-04T11:50:42.626Z,1019.81
2022-09-04T11:51:42.605Z,1019.81
2022-09-04T11:52:42.577Z,1019.79
2022-09-04T11:53:43.398Z,1019.81
2022-09-04T11:54:42.597Z,1019.80
2022-09-04T11:55:42.593Z,1019.75
2022-09-04T11:56:42.531Z,1019.78
2022-09-04T11:57:42.527Z,1019.80
2022-09-04T11:58:42.511Z,1019.76
2022-09-04T11:59:42.762Z,1019.78
2022-09-04T12:00:42.633Z,1019.83
2022-09-04T12:01:47.547Z,1019.78
2022-09-04T12:02:42.523Z,1019.78
2022-09-04T12:03:42.497Z,1019.83
2022-09-04T12:04:42.435Z,1019.74
2022-09-04T12:05:42.457Z,1019.82
2022-09-04T12:06:42.433Z,1019.79
2022-09-04T12:07:43.536Z,1019.79
2022-09-04T12:08:42.425Z,1019.84
2022-09-04T12:09:42.417Z,1019.79
2022-09-04T12:10:42.424Z,1019.84
2022-09-04T12:11:42.493Z,1019.85